sensor_id;sensor_type;location;lat;lon;timestamp;pressure;altitude;pressure_sealevel;temperature
15607;BMP180;7865;50.918;4.510;2024-01-30T00:01:57;102060.00;;;9.80
15607;BMP180;7865;50.918;4.510;2024-01-30T00:06:58;102058.00;;;9.80
15607;BMP180;7865;50.918;4.510;2024-01-30T00:12:00;102052.00;;;9.90
15607;BMP180;7865;50.918;4.510;2024-01-30T00:17:02;102043.00;;;9.90
15607;BMP180;7865;50.918;4.510;2024-01-30T00:22:04;102050.00;;;9.90
15607;BMP180;7865;50.918;4.510;2024-01-30T00:27:08;102045.00;;;10.00
15607;BMP180;7865;50.918;4.510;2024-01-30T00:32:09;102040.00;;;10.10
15607;BMP180;7865;50.918;4.510;2024-01-30T00:37:11;102033.00;;;10.10
15607;BMP180;7865;50.918;4.510;2024-01-30T00:42:13;102021.00;;;10.20
15607;BMP180;7865;50.918;4.510;2024-01-30T00:47:15;102019.00;;;10.30
15607;BMP180;7865;50.918;4.510;2024-01-30T00:52:17;102021.00;;;10.30
15607;BMP180;7865;50.918;4.510;2024-01-30T00:57:19;102021.00;;;10.40
15607;BMP180;7865;50.918;4.510;2024-01-30T01:02:21;102023.00;;;10.40
15607;BMP180;7865;50.918;4.510;2024-01-30T01:07:23;102022.00;;;10.30
15607;BMP180;7865;50.918;4.510;2024-01-30T01:12:25;102022.00;;;10.40
15607;BMP180;7865;50.918;4.510;2024-01-30T01:17:27;102014.00;;;10.40
15607;BMP180;7865;50.918;4.510;2024-01-30T01:22:29;102008.00;;;10.40
15607;BMP180;7865;50.918;4.510;2024-01-30T01:27:31;102006.00;;;10.50
15607;BMP180;7865;50.918;4.510;2024-01-30T01:32:34;102011.00;;;10.50
15607;BMP180;7865;50.918;4.510;2024-01-30T01:37:36;102009.00;;;10.50
15607;BMP180;7865;50.918;4.510;2024-01-30T01:42:38;102009.00;;;10.40
15607;BMP180;7865;50.918;4.510;2024-01-30T01:47:40;101998.00;;;10.40
15607;BMP180;7865;50.918;4.510;2024-01-30T01:52:42;102004.00;;;10.30
15607;BMP180;7865;50.918;4.510;2024-01-30T01:57:44;101996.00;;;10.40
15607;BMP180;7865;50.918;4.510;2024-01-30T02:02:46;101990.00;;;10.30
15607;BMP180;7865;50.918;4.510;2024-01-30T02:07:50;101991.00;;;10.40
15607;BMP180;7865;50.918;4.510;2024-01-30T02:12:52;101982.00;;;10.40
15607;BMP180;7865;50.918;4.510;2024-01-30T02:17:54;101992.00;;;10.50
15607;BMP180;7865;50.918;4.510;2024-01-30T02:22:58;101988.00;;;10.40
15607;BMP180;7865;50.918;4.510;2024-01-30T02:28:01;101990.00;;;10.40
15607;BMP180;7865;50.918;4.510;2024-01-30T02:33:03;101988.00;;;10.30
15607;BMP180;7865;50.918;4.510;2024-01-30T02:38:05;101987.00;;;10.10
15607;BMP180;7865;50.918;4.510;2024-01-30T02:43:07;101993.00;;;10.00
15607;BMP180;7865;50.918;4.510;2024-01-30T02:48:09;101996.00;;;10.10
15607;BMP180;7865;50.918;4.510;2024-01-30T02:53:10;101994.00;;;10.10
15607;BMP180;7865;50.918;4.510;2024-01-30T02:58:12;101989.00;;;10.20
15607;BMP180;7865;50.918;4.510;2024-01-30T03:03:14;101984.00;;;10.30
15607;BMP180;7865;50.918;4.510;2024-01-30T03:08:16;101985.00;;;10.30
15607;BMP180;7865;50.918;4.510;2024-01-30T03:13:18;101990.00;;;10.30
15607;BMP180;7865;50.918;4.510;2024-01-30T03:18:20;102000.00;;;10.20
15607;BMP180;7865;50.918;4.510;2024-01-30T03:23:22;102003.00;;;10.20
15607;BMP180;7865;50.918;4.510;2024-01-30T03:28:24;101991.00;;;10.10
15607;BMP180;7865;50.918;4.510;2024-01-30T03:33:25;101988.00;;;10.10
15607;BMP180;7865;50.918;4.510;2024-01-30T03:38:28;101985.00;;;10.30
15607;BMP180;7865;50.918;4.510;2024-01-30T03:43:30;101988.00;;;10.40
15607;BMP180;7865;50.918;4.510;2024-01-30T03:48:32;101989.00;;;10.40
15607;BMP180;7865;50.918;4.510;2024-01-30T03:53:34;101984.00;;;10.30
15607;BMP180;7865;50.918;4.510;2024-01-30T03:58:36;101973.00;;;10.10
15607;BMP180;7865;50.918;4.510;2024-01-30T04:03:38;101961.00;;;10.00
15607;BMP180;7865;50.918;4.510;2024-01-30T04:08:40;101966.00;;;9.90
15607;BMP180;7865;50.918;4.510;2024-01-30T04:13:42;101975.00;;;9.90
15607;BMP180;7865;50.918;4.510;2024-01-30T04:18:45;101968.00;;;9.80
15607;BMP180;7865;50.918;4.510;2024-01-30T04:23:46;101970.00;;;9.90
15607;BMP180;7865;50.918;4.510;2024-01-30T04:28:50;101973.00;;;10.00
15607;BMP180;7865;50.918;4.510;2024-01-30T04:33:51;101974.00;;;10.10
15607;BMP180;7865;50.918;4.510;2024-01-30T04:38:53;101974.00;;;10.20
15607;BMP180;7865;50.918;4.510;2024-01-30T04:43:55;101974.00;;;10.20
15607;BMP180;7865;50.918;4.510;2024-01-30T04:48:57;101970.00;;;10.20
15607;BMP180;7865;50.918;4.510;2024-01-30T04:53:59;101968.00;;;10.20
15607;BMP180;7865;50.918;4.510;2024-01-30T04:59:02;101969.00;;;10.20
15607;BMP180;7865;50.918;4.510;2024-01-30T05:04:07;101968.00;;;10.10
15607;BMP180;7865;50.918;4.510;2024-01-30T05:09:10;101966.00;;;10.10
15607;BMP180;7865;50.918;4.510;2024-01-30T05:14:13;101960.00;;;10.10
15607;BMP180;7865;50.918;4.510;2024-01-30T05:19:16;101966.00;;;10.10
15607;BMP180;7865;50.918;4.510;2024-01-30T05:24:19;101968.00;;;10.00
15607;BMP180;7865;50.918;4.510;2024-01-30T05:29:22;101969.00;;;10.00
15607;BMP180;7865;50.918;4.510;2024-01-30T05:34:24;101970.00;;;10.00
15607;BMP180;7865;50.918;4.510;2024-01-30T05:39:25;101978.00;;;10.10
15607;BMP180;7865;50.918;4.510;2024-01-30T05:44:27;101962.00;;;10.10
15607;BMP180;7865;50.918;4.510;2024-01-30T05:49:29;101966.00;;;10.10
15607;BMP180;7865;50.918;4.510;2024-01-30T05:54:32;101977.00;;;10.10
15607;BMP180;7865;50.918;4.510;2024-01-30T05:59:33;101973.00;;;10.00
15607;BMP180;7865;50.918;4.510;2024-01-30T06:04:41;101979.00;;;10.00
15607;BMP180;7865;50.918;4.510;2024-01-30T06:09:43;101992.00;;;9.90
15607;BMP180;7865;50.918;4.510;2024-01-30T06:14:45;101995.00;;;9.90
15607;BMP180;7865;50.918;4.510;2024-01-30T06:19:48;102002.00;;;9.90
15607;BMP180;7865;50.918;4.510;2024-01-30T06:24:50;102009.00;;;9.80
15607;BMP180;7865;50.918;4.510;2024-01-30T06:29:52;102007.00;;;9.80
15607;BMP180;7865;50.918;4.510;2024-01-30T06:34:54;102013.00;;;9.90
15607;BMP180;7865;50.918;4.510;2024-01-30T06:39:56;102021.00;;;9.90
15607;BMP180;7865;50.918;4.510;2024-01-30T06:44:58;102026.00;;;9.90
15607;BMP180;7865;50.918;4.510;2024-01-30T06:50:00;102031.00;;;9.90
15607;BMP180;7865;50.918;4.510;2024-01-30T06:55:04;102031.00;;;9.90
15607;BMP180;7865;50.918;4.510;2024-01-30T07:00:07;102037.00;;;9.90
15607;BMP180;7865;50.918;4.510;2024-01-30T07:05:09;102043.00;;;10.00
15607;BMP180;7865;50.918;4.510;2024-01-30T07:10:11;102050.00;;;9.90
15607;BMP180;7865;50.918;4.510;2024-01-30T07:15:13;102059.00;;;10.00
15607;BMP180;7865;50.918;4.510;2024-01-30T07:20:18;102058.00;;;10.10
15607;BMP180;7865;50.918;4.510;2024-01-30T07:25:22;102072.00;;;10.30
15607;BMP180;7865;50.918;4.510;2024-01-30T07:30:28;102085.00;;;10.40
15607;BMP180;7865;50.918;4.510;2024-01-30T07:35:30;102091.00;;;10.50
15607;BMP180;7865;50.918;4.510;2024-01-30T07:40:32;102097.00;;;10.70
15607;BMP180;7865;50.918;4.510;2024-01-30T07:45:35;102095.00;;;10.80
15607;BMP180;7865;50.918;4.510;2024-01-30T07:50:37;102106.00;;;11.00
15607;BMP180;7865;50.918;4.510;2024-01-30T07:55:38;102106.00;;;11.20
15607;BMP180;7865;50.918;4.510;2024-01-30T08:00:40;102118.00;;;11.40
15607;BMP180;7865;50.918;4.510;2024-01-30T08:05:43;102113.00;;;11.50
15607;BMP180;7865;50.918;4.510;2024-01-30T08:10:45;102130.00;;;11.50
15607;BMP180;7865;50.918;4.510;2024-01-30T08:15:46;102133.00;;;11.50
15607;BMP180;7865;50.918;4.510;2024-01-30T08:20:48;102138.00;;;11.60
15607;BMP180;7865;50.918;4.510;2024-01-30T08:25:50;102138.00;;;11.60
15607;BMP180;7865;50.918;4.510;2024-01-30T08:30:52;102128.00;;;11.70
15607;BMP180;7865;50.918;4.510;2024-01-30T08:35:54;102115.00;;;11.80
15607;BMP180;7865;50.918;4.510;2024-01-30T08:40:56;102127.00;;;11.90
15607;BMP180;7865;50.918;4.510;2024-01-30T08:46:01;102122.00;;;12.20
15607;BMP180;7865;50.918;4.510;2024-01-30T08:51:03;102135.00;;;12.40
15607;BMP180;7865;50.918;4.510;2024-01-30T08:56:06;102137.00;;;12.30
15607;BMP180;7865;50.918;4.510;2024-01-30T09:01:08;102148.00;;;12.20
15607;BMP180;7865;50.918;4.510;2024-01-30T09:06:10;102153.00;;;12.00
15607;BMP180;7865;50.918;4.510;2024-01-30T09:11:14;102155.00;;;11.90
15607;BMP180;7865;50.918;4.510;2024-01-30T09:16:16;102148.00;;;11.90
15607;BMP180;7865;50.918;4.510;2024-01-30T09:21:18;102161.00;;;11.90
15607;BMP180;7865;50.918;4.510;2024-01-30T09:26:20;102166.00;;;12.00
15607;BMP180;7865;50.918;4.510;2024-01-30T09:31:26;102165.00;;;12.20
15607;BMP180;7865;50.918;4.510;2024-01-30T09:36:28;102165.00;;;12.20
15607;BMP180;7865;50.918;4.510;2024-01-30T09:41:32;102185.00;;;12.30
15607;BMP180;7865;50.918;4.510;2024-01-30T09:46:34;102186.00;;;12.30
15607;BMP180;7865;50.918;4.510;2024-01-30T09:51:37;102191.00;;;12.40
15607;BMP180;7865;50.918;4.510;2024-01-30T09:56:39;102194.00;;;12.40
15607;BMP180;7865;50.918;4.510;2024-01-30T10:01:42;102200.00;;;12.30
15607;BMP180;7865;50.918;4.510;2024-01-30T10:06:44;102210.00;;;12.30
15607;BMP180;7865;50.918;4.510;2024-01-30T10:11:47;102210.00;;;12.20
15607;BMP180;7865;50.918;4.510;2024-01-30T10:16:50;102213.00;;;12.40
15607;BMP180;7865;50.918;4.510;2024-01-30T10:21:52;102223.00;;;12.40
15607;BMP180;7865;50.918;4.510;2024-01-30T10:26:55;102227.00;;;12.40
15607;BMP180;7865;50.918;4.510;2024-01-30T10:32:01;102230.00;;;12.30
15607;BMP180;7865;50.918;4.510;2024-01-30T10:37:10;102244.00;;;12.10
15607;BMP180;7865;50.918;4.510;2024-01-30T10:42:18;102244.00;;;11.80
15607;BMP180;7865;50.918;4.510;2024-01-30T10:47:26;102245.00;;;11.80
15607;BMP180;7865;50.918;4.510;2024-01-30T10:52:29;102247.00;;;11.90
15607;BMP180;7865;50.918;4.510;2024-01-30T10:57:36;102252.00;;;12.30
15607;BMP180;7865;50.918;4.510;2024-01-30T11:02:40;102261.00;;;12.30
15607;BMP180;7865;50.918;4.510;2024-01-30T11:07:43;102251.00;;;12.20
15607;BMP180;7865;50.918;4.510;2024-01-30T11:12:46;102255.00;;;12.10
15607;BMP180;7865;50.918;4.510;2024-01-30T11:22:52;102258.00;;;11.70
15607;BMP180;7865;50.918;4.510;2024-01-30T11:27:55;102262.00;;;11.60
15607;BMP180;7865;50.918;4.510;2024-01-30T11:38:08;102265.00;;;12.30
15607;BMP180;7865;50.918;4.510;2024-01-30T11:43:10;102265.00;;;12.30
15607;BMP180;7865;50.918;4.510;2024-01-30T11:48:13;102280.00;;;12.40
15607;BMP180;7865;50.918;4.510;2024-01-30T11:53:15;102278.00;;;12.50
15607;BMP180;7865;50.918;4.510;2024-01-30T11:58:17;102288.00;;;12.40
15607;BMP180;7865;50.918;4.510;2024-01-30T12:03:19;102276.00;;;12.80
15607;BMP180;7865;50.918;4.510;2024-01-30T12:08:21;102285.00;;;13.40
15607;BMP180;7865;50.918;4.510;2024-01-30T12:13:23;102276.00;;;12.90
15607;BMP180;7865;50.918;4.510;2024-01-30T12:18:25;102267.00;;;12.80
15607;BMP180;7865;50.918;4.510;2024-01-30T12:23:27;102278.00;;;12.50
15607;BMP180;7865;50.918;4.510;2024-01-30T12:28:30;102294.00;;;12.30
15607;BMP180;7865;50.918;4.510;2024-01-30T12:33:32;102302.00;;;11.90
15607;BMP180;7865;50.918;4.510;2024-01-30T12:38:34;102300.00;;;12.00
15607;BMP180;7865;50.918;4.510;2024-01-30T12:43:36;102297.00;;;12.40
15607;BMP180;7865;50.918;4.510;2024-01-30T12:48:40;102305.00;;;13.40
15607;BMP180;7865;50.918;4.510;2024-01-30T12:53:42;102314.00;;;13.10
15607;BMP180;7865;50.918;4.510;2024-01-30T12:58:44;102317.00;;;12.90
15607;BMP180;7865;50.918;4.510;2024-01-30T13:03:50;102327.00;;;12.80
15607;BMP180;7865;50.918;4.510;2024-01-30T13:08:52;102313.00;;;12.50
15607;BMP180;7865;50.918;4.510;2024-01-30T13:13:54;102332.00;;;11.90
15607;BMP180;7865;50.918;4.510;2024-01-30T13:18:56;102331.00;;;11.60
15607;BMP180;7865;50.918;4.510;2024-01-30T13:23:58;102326.00;;;11.50
15607;BMP180;7865;50.918;4.510;2024-01-30T13:29:01;102334.00;;;11.60
15607;BMP180;7865;50.918;4.510;2024-01-30T13:34:03;102323.00;;;11.60
15607;BMP180;7865;50.918;4.510;2024-01-30T13:39:09;102323.00;;;11.50
15607;BMP180;7865;50.918;4.510;2024-01-30T13:44:12;102333.00;;;11.40
15607;BMP180;7865;50.918;4.510;2024-01-30T13:49:14;102339.00;;;11.60
15607;BMP180;7865;50.918;4.510;2024-01-30T13:54:16;102349.00;;;11.60
15607;BMP180;7865;50.918;4.510;2024-01-30T13:59:18;102352.00;;;11.60
15607;BMP180;7865;50.918;4.510;2024-01-30T14:04:25;102354.00;;;11.30
15607;BMP180;7865;50.918;4.510;2024-01-30T14:09:27;102362.00;;;11.10
15607;BMP180;7865;50.918;4.510;2024-01-30T14:14:30;102362.00;;;10.90
15607;BMP180;7865;50.918;4.510;2024-01-30T14:19:35;102365.00;;;10.70
15607;BMP180;7865;50.918;4.510;2024-01-30T14:24:38;102370.00;;;10.60
15607;BMP180;7865;50.918;4.510;2024-01-30T14:29:40;102375.00;;;10.50
15607;BMP180;7865;50.918;4.510;2024-01-30T14:34:44;102387.00;;;10.40
15607;BMP180;7865;50.918;4.510;2024-01-30T14:39:47;102395.00;;;10.40
15607;BMP180;7865;50.918;4.510;2024-01-30T14:44:49;102391.00;;;10.30
15607;BMP180;7865;50.918;4.510;2024-01-30T14:49:51;102409.00;;;10.10
15607;BMP180;7865;50.918;4.510;2024-01-30T14:54:54;102406.00;;;10.00
15607;BMP180;7865;50.918;4.510;2024-01-30T14:59:56;102414.00;;;10.00
15607;BMP180;7865;50.918;4.510;2024-01-30T15:04:58;102421.00;;;10.10
15607;BMP180;7865;50.918;4.510;2024-01-30T15:10:00;102428.00;;;10.00
15607;BMP180;7865;50.918;4.510;2024-01-30T15:15:03;102444.00;;;10.00
15607;BMP180;7865;50.918;4.510;2024-01-30T15:20:06;102445.00;;;9.80
15607;BMP180;7865;50.918;4.510;2024-01-30T15:25:08;102451.00;;;9.80
15607;BMP180;7865;50.918;4.510;2024-01-30T15:30:12;102454.00;;;9.70
15607;BMP180;7865;50.918;4.510;2024-01-30T15:35:14;102452.00;;;9.70
15607;BMP180;7865;50.918;4.510;2024-01-30T15:40:15;102462.00;;;9.60
15607;BMP180;7865;50.918;4.510;2024-01-30T15:45:18;102481.00;;;9.60
15607;BMP180;7865;50.918;4.510;2024-01-30T15:50:21;102482.00;;;9.60
15607;BMP180;7865;50.918;4.510;2024-01-30T15:55:23;102489.00;;;9.50
15607;BMP180;7865;50.918;4.510;2024-01-30T16:00:25;102492.00;;;9.50
15607;BMP180;7865;50.918;4.510;2024-01-30T16:05:27;102508.00;;;9.50
15607;BMP180;7865;50.918;4.510;2024-01-30T16:10:29;102516.00;;;9.40
15607;BMP180;7865;50.918;4.510;2024-01-30T16:15:31;102524.00;;;9.40
15607;BMP180;7865;50.918;4.510;2024-01-30T16:20:52;102530.00;;;9.40
15607;BMP180;7865;50.918;4.510;2024-01-30T16:26:13;102534.00;;;9.30
15607;BMP180;7865;50.918;4.510;2024-01-30T16:31:34;102527.00;;;9.10
15607;BMP180;7865;50.918;4.510;2024-01-30T16:36:55;102532.00;;;9.00
15607;BMP180;7865;50.918;4.510;2024-01-30T16:42:18;102544.00;;;8.70
15607;BMP180;7865;50.918;4.510;2024-01-30T16:47:38;102551.00;;;8.50
15607;BMP180;7865;50.918;4.510;2024-01-30T16:53:00;102555.00;;;8.40
15607;BMP180;7865;50.918;4.510;2024-01-30T16:58:21;102565.00;;;8.20
15607;BMP180;7865;50.918;4.510;2024-01-30T17:03:43;102568.00;;;7.90
15607;BMP180;7865;50.918;4.510;2024-01-30T17:09:04;102571.00;;;7.80
15607;BMP180;7865;50.918;4.510;2024-01-30T17:14:28;102576.00;;;7.70
15607;BMP180;7865;50.918;4.510;2024-01-30T17:19:52;102585.00;;;7.70
15607;BMP180;7865;50.918;4.510;2024-01-30T17:25:13;102591.00;;;7.70
15607;BMP180;7865;50.918;4.510;2024-01-30T17:30:37;102592.00;;;7.70
15607;BMP180;7865;50.918;4.510;2024-01-30T17:35:59;102610.00;;;7.80
15607;BMP180;7865;50.918;4.510;2024-01-30T17:41:20;102627.00;;;7.80
15607;BMP180;7865;50.918;4.510;2024-01-30T17:46:42;102623.00;;;7.80
15607;BMP180;7865;50.918;4.510;2024-01-30T17:52:03;102634.00;;;7.80
15607;BMP180;7865;50.918;4.510;2024-01-30T17:57:24;102645.00;;;7.80
15607;BMP180;7865;50.918;4.510;2024-01-30T18:02:45;102653.00;;;7.80
15607;BMP180;7865;50.918;4.510;2024-01-30T18:08:06;102654.00;;;7.80
15607;BMP180;7865;50.918;4.510;2024-01-30T18:13:09;102657.00;;;7.80
15607;BMP180;7865;50.918;4.510;2024-01-30T18:18:14;102654.00;;;7.80
15607;BMP180;7865;50.918;4.510;2024-01-30T18:23:18;102652.00;;;7.80
15607;BMP180;7865;50.918;4.510;2024-01-30T18:28:20;102651.00;;;7.80
15607;BMP180;7865;50.918;4.510;2024-01-30T18:33:22;102665.00;;;7.80
15607;BMP180;7865;50.918;4.510;2024-01-30T18:38:23;102664.00;;;7.80
15607;BMP180;7865;50.918;4.510;2024-01-30T18:43:25;102667.00;;;7.80
15607;BMP180;7865;50.918;4.510;2024-01-30T18:48:27;102673.00;;;7.90
15607;BMP180;7865;50.918;4.510;2024-01-30T18:53:29;102688.00;;;7.90
15607;BMP180;7865;50.918;4.510;2024-01-30T18:58:31;102685.00;;;7.80
15607;BMP180;7865;50.918;4.510;2024-01-30T19:03:33;102703.00;;;7.80
15607;BMP180;7865;50.918;4.510;2024-01-30T19:08:36;102712.00;;;7.80
15607;BMP180;7865;50.918;4.510;2024-01-30T19:13:38;102709.00;;;7.80
15607;BMP180;7865;50.918;4.510;2024-01-30T19:18:40;102711.00;;;7.80
15607;BMP180;7865;50.918;4.510;2024-01-30T19:23:42;102709.00;;;7.80
15607;BMP180;7865;50.918;4.510;2024-01-30T19:28:43;102701.00;;;7.80
15607;BMP180;7865;50.918;4.510;2024-01-30T19:33:48;102705.00;;;7.70
15607;BMP180;7865;50.918;4.510;2024-01-30T19:38:50;102722.00;;;7.70
15607;BMP180;7865;50.918;4.510;2024-01-30T19:43:52;102727.00;;;7.70
15607;BMP180;7865;50.918;4.510;2024-01-30T19:48:54;102725.00;;;7.80
15607;BMP180;7865;50.918;4.510;2024-01-30T19:53:56;102731.00;;;7.80
15607;BMP180;7865;50.918;4.510;2024-01-30T19:58:58;102729.00;;;7.70
15607;BMP180;7865;50.918;4.510;2024-01-30T20:04:00;102725.00;;;7.70
15607;BMP180;7865;50.918;4.510;2024-01-30T20:09:03;102737.00;;;7.70
15607;BMP180;7865;50.918;4.510;2024-01-30T20:14:05;102742.00;;;7.70
15607;BMP180;7865;50.918;4.510;2024-01-30T20:19:08;102744.00;;;7.70
15607;BMP180;7865;50.918;4.510;2024-01-30T20:24:11;102755.00;;;7.70
15607;BMP180;7865;50.918;4.510;2024-01-30T20:29:13;102754.00;;;7.70
15607;BMP180;7865;50.918;4.510;2024-01-30T20:34:14;102763.00;;;7.70
15607;BMP180;7865;50.918;4.510;2024-01-30T20:39:17;102772.00;;;7.70
15607;BMP180;7865;50.918;4.510;2024-01-30T20:44:19;102773.00;;;7.70
15607;BMP180;7865;50.918;4.510;2024-01-30T20:49:21;102785.00;;;7.70
15607;BMP180;7865;50.918;4.510;2024-01-30T20:54:23;102786.00;;;7.60
15607;BMP180;7865;50.918;4.510;2024-01-30T20:59:26;102789.00;;;7.70
15607;BMP180;7865;50.918;4.510;2024-01-30T21:04:28;102782.00;;;7.60
15607;BMP180;7865;50.918;4.510;2024-01-30T21:09:31;102777.00;;;7.60
15607;BMP180;7865;50.918;4.510;2024-01-30T21:14:33;102793.00;;;7.60
15607;BMP180;7865;50.918;4.510;2024-01-30T21:19:35;102793.00;;;7.60
15607;BMP180;7865;50.918;4.510;2024-01-30T21:24:37;102797.00;;;7.60
15607;BMP180;7865;50.918;4.510;2024-01-30T21:29:38;102810.00;;;7.50
15607;BMP180;7865;50.918;4.510;2024-01-30T21:34:42;102809.00;;;7.50
15607;BMP180;7865;50.918;4.510;2024-01-30T21:39:44;102822.00;;;7.50
15607;BMP180;7865;50.918;4.510;2024-01-30T21:44:47;102836.00;;;7.50
15607;BMP180;7865;50.918;4.510;2024-01-30T21:49:49;102824.00;;;7.50
15607;BMP180;7865;50.918;4.510;2024-01-30T21:54:51;102833.00;;;7.50
15607;BMP180;7865;50.918;4.510;2024-01-30T21:59:53;102840.00;;;7.40
15607;BMP180;7865;50.918;4.510;2024-01-30T22:04:55;102831.00;;;7.50
15607;BMP180;7865;50.918;4.510;2024-01-30T22:09:57;102840.00;;;7.50
15607;BMP180;7865;50.918;4.510;2024-01-30T22:14:59;102848.00;;;7.50
15607;BMP180;7865;50.918;4.510;2024-01-30T22:20:01;102845.00;;;7.50
15607;BMP180;7865;50.918;4.510;2024-01-30T22:25:06;102848.00;;;7.40
15607;BMP180;7865;50.918;4.510;2024-01-30T22:30:08;102849.00;;;7.40
15607;BMP180;7865;50.918;4.510;2024-01-30T22:35:10;102844.00;;;7.40
15607;BMP180;7865;50.918;4.510;2024-01-30T22:40:15;102849.00;;;7.40
15607;BMP180;7865;50.918;4.510;2024-01-30T22:45:17;102855.00;;;7.50
15607;BMP180;7865;50.918;4.510;2024-01-30T22:50:19;102854.00;;;7.50
15607;BMP180;7865;50.918;4.510;2024-01-30T22:55:21;102855.00;;;7.50
15607;BMP180;7865;50.918;4.510;2024-01-30T23:00:23;102869.00;;;7.50
15607;BMP180;7865;50.918;4.510;2024-01-30T23:05:30;102881.00;;;7.50
15607;BMP180;7865;50.918;4.510;2024-01-30T23:10:32;102867.00;;;7.50
15607;BMP180;7865;50.918;4.510;2024-01-30T23:15:34;102868.00;;;7.50
15607;BMP180;7865;50.918;4.510;2024-01-30T23:20:36;102864.00;;;7.50
15607;BMP180;7865;50.918;4.510;2024-01-30T23:25:39;102857.00;;;7.50
15607;BMP180;7865;50.918;4.510;2024-01-30T23:30:42;102863.00;;;7.50
15607;BMP180;7865;50.918;4.510;2024-01-30T23:35:44;102858.00;;;7.50
15607;BMP180;7865;50.918;4.510;2024-01-30T23:40:46;102863.00;;;7.50
15607;BMP180;7865;50.918;4.510;2024-01-30T23:45:50;102870.00;;;7.50
15607;BMP180;7865;50.918;4.510;2024-01-30T23:50:52;102864.00;;;7.40
15607;BMP180;7865;50.918;4.510;2024-01-30T23:55:54;102869.00;;;7.40
